createdAt,value
2022-08-26T00:07:11.865Z,4.80
2022-08-26T00:17:15.267Z,3.40
2022-08-26T00:27:19.974Z,3.50
2022-08-26T00:37:24.185Z,3.95
2022-08-26T00:47:35.316Z,3.50
2022-08-26T00:57:41.126Z,3.62
2022-08-26T01:07:45.844Z,3.42
2022-08-26T01:17:49.873Z,3.58
2022-08-26T01:27:57.824Z,3.95
2022-08-26T01:38:02.295Z,3.87
2022-08-26T01:48:11.634Z,3.70
2022-08-26T01:58:18.513Z,3.37
2022-08-26T02:08:26.108Z,3.60
2022-08-26T02:18:30.112Z,3.62
2022-08-26T02:28:40.490Z,3.37
2022-08-26T02:38:43.633Z,3.33
2022-08-26T02:48:51.104Z,3.75
2022-08-26T02:58:54.409Z,3.30
2022-08-26T03:08:59.193Z,3.95
2022-08-26T03:19:03.521Z,4.40
2022-08-26T03:29:25.651Z,3.35
2022-08-26T03:39:31.562Z,3.58
2022-08-26T03:49:37.168Z,3.80
2022-08-26T03:59:41.317Z,3.67
2022-08-26T04:09:46.179Z,3.78
2022-08-26T04:19:49.776Z,3.60
2022-08-26T04:29:55.265Z,4.18
2022-08-26T04:39:58.746Z,3.78
2022-08-26T04:50:03.339Z,3.95
2022-08-26T05:00:07.753Z,3.90
2022-08-26T05:10:12.487Z,4.10
2022-08-26T05:20:19.227Z,3.90
2022-08-26T05:30:31.451Z,4.10
2022-08-26T05:40:35.475Z,4.07
2022-08-26T05:50:40.959Z,4.20
2022-08-26T06:00:46.303Z,4.05
2022-08-26T06:10:52.623Z,4.20
2022-08-26T06:20:57.874Z,3.60
2022-08-26T06:31:03.917Z,3.40
2022-08-26T06:41:10.705Z,3.50
2022-08-26T06:51:17.970Z,3.58
2022-08-26T07:01:24.455Z,3.42
2022-08-26T07:11:29.210Z,2.90
2022-08-26T07:21:34.059Z,2.70
2022-08-26T07:31:39.418Z,3.00
2022-08-26T07:41:47.327Z,3.20
2022-08-26T07:51:52.229Z,3.03
2022-08-26T08:01:59.130Z,3.42
2022-08-26T08:12:04.446Z,2.65
2022-08-26T08:22:11.356Z,3.17
2022-08-26T08:32:22.513Z,2.87
2022-08-26T08:42:38.618Z,2.70
2022-08-26T08:52:45.638Z,2.92
2022-08-26T09:02:53.824Z,2.53
2022-08-26T09:13:06.130Z,2.55
2022-08-26T09:23:11.116Z,2.78
2022-08-26T09:33:18.573Z,2.70
2022-08-26T09:43:22.070Z,2.45
2022-08-26T09:53:30.405Z,2.70
2022-08-26T10:03:36.259Z,2.92
2022-08-26T10:13:43.955Z,2.70
2022-08-26T10:23:49.490Z,2.95
2022-08-26T10:33:58.683Z,2.20
2022-08-26T10:44:05.094Z,2.53
2022-08-26T10:54:12.360Z,2.70
2022-08-26T11:04:25.015Z,2.62
2022-08-26T11:14:53.087Z,2.80
2022-08-26T11:25:13.414Z,2.33
2022-08-26T11:35:46.527Z,2.40
2022-08-26T11:46:00.615Z,2.10
2022-08-26T11:56:09.631Z,2.53
2022-08-26T12:06:16.784Z,2.60
2022-08-26T12:16:25.539Z,2.42
2022-08-26T12:26:32.869Z,2.65
2022-08-26T12:36:37.874Z,2.28
2022-08-26T12:46:44.716Z,2.37
2022-08-26T12:56:49.878Z,2.30
2022-08-26T13:07:30.763Z,2.10
2022-08-26T13:17:36.066Z,2.07
2022-08-26T13:27:39.299Z,2.03
2022-08-26T13:37:43.881Z,2.30
2022-08-26T13:47:49.506Z,1.87
2022-08-26T13:57:54.285Z,2.12
2022-08-26T14:07:58.359Z,2.20
2022-08-26T14:18:05.837Z,2.50
2022-08-26T14:28:12.054Z,2.20
2022-08-26T14:38:17.576Z,2.45
2022-08-26T14:48:20.811Z,2.37
2022-08-26T14:58:25.387Z,2.70
2022-08-26T15:08:36.609Z,2.45
2022-08-26T15:18:41.584Z,2.53
2022-08-26T15:28:45.167Z,2.53
2022-08-26T15:38:49.783Z,2.37
2022-08-26T15:48:53.546Z,2.30
2022-08-26T15:58:59.487Z,2.70
2022-08-26T16:09:03.201Z,2.20
2022-08-26T16:19:08.262Z,2.37
2022-08-26T16:29:14.097Z,2.42
2022-08-26T16:39:18.670Z,2.70
2022-08-26T16:49:22.406Z,3.00
2022-08-26T16:59:27.430Z,2.50
2022-08-26T17:09:31.463Z,2.58
2022-08-26T17:19:40.847Z,2.30
2022-08-26T17:29:44.974Z,3.05
2022-08-26T17:39:49.541Z,3.00
2022-08-26T17:49:52.862Z,3.17
2022-08-26T17:59:57.438Z,3.55
2022-08-26T18:10:01.591Z,4.03
2022-08-26T18:20:07.239Z,3.75
2022-08-26T18:30:16.667Z,3.60
2022-08-26T18:40:22.046Z,3.90
2022-08-26T18:50:25.370Z,3.47
2022-08-26T19:00:31.579Z,3.90
2022-08-26T19:10:35.849Z,4.22
2022-08-26T19:20:44.723Z,3.83
2022-08-26T19:30:53.183Z,4.97
2022-08-26T19:40:58.882Z,4.28
2022-08-26T19:51:02.018Z,4.50
2022-08-26T20:01:11.670Z,4.53
2022-08-26T20:11:42.731Z,4.10
2022-08-26T20:21:47.274Z,4.10
2022-08-26T20:31:50.539Z,4.10
2022-08-26T20:41:55.160Z,3.60
2022-08-26T20:51:58.410Z,4.10
2022-08-26T21:02:03.020Z,4.10
2022-08-26T21:12:06.438Z,4.00
2022-08-26T21:22:12.353Z,4.87
2022-08-26T21:32:15.837Z,3.90
2022-08-26T21:42:20.512Z,4.40
2022-08-26T21:52:23.877Z,4.43
2022-08-26T22:02:28.666Z,4.07
2022-08-26T22:12:31.840Z,4.28
2022-08-26T22:22:36.486Z,3.50
2022-08-26T22:32:40.423Z,4.18
2022-08-26T22:42:45.066Z,4.22
2022-08-26T22:53:01.378Z,4.50
2022-08-26T23:03:06.259Z,3.97
2022-08-26T23:13:09.480Z,4.03
2022-08-26T23:23:14.086Z,4.40
2022-08-26T23:33:17.536Z,4.28
2022-08-26T23:43:22.229Z,4.57
2022-08-26T23:53:25.382Z,4.30
